Portada
METAR-TAF:

METAR-TAF

Aeroports :

Ubon Ratchathani, Tailàndia

latitud: 15-15N, longitud: 104-52E, altitud: 123 m

Observació

L'informe es va fer fa 1 hora i 7 minuts, a les 22:00 UTC
Vent 3 kt del Oest
Temperatura 28°C
Humitat 74%
Pressió 1011 hPa
Visibilitat: 9000 m

METAR: VTUU 122200Z 27003KT 9000 NSC 28/23 Q1011 NOSIG

Hora: 06:07 (23:07 UTC)

Pronòstic

L'informe es va fer fa 6 hores i 7 minuts, a les 17:00 UTC
Pronòstic vàlid del 12 a les 18 UTC al 13 a les 18 UTC
Vent 5 kt del Oest/Sud-Oest
Visibilitat 10 km o més
Escasses núvols a una alçada de 3000 ft

TAF: VTUU 121700Z 1218/1318 25005KT 9999 FEW030

Observacions i pronòstics meteorològics de més de 4000 aeroports (METAR i TAF).

Les estacions disponibles són els punts grocs i vermells al mapa.

Posi el ratolí al punt desitjat per veure el nom de l'estació.

Feu clic per veure les observacions i els pronòstics meteorològics.

Per canviar el mapa: feu clic els botons verds amb una creu de color negre per apropar; al botó verd amb un guió per allunyar la imatge; o en les fletxes verdes per a mapes adjacents.


METAR-TAF: